Time;durP1;ratioP1;P1;durP2;ratioP2;P2;SDS_P1;SDS_P2;PMS_P1;PMS_P2;Temp;Humidity;BMP_temperature;BMP_pressure;BME280_temperature;BME280_humidity;BME280_pressure;Samples;Min_cycle;Max_cycle;Signal;HPM_P1;HPM_P2
2020/12/27 00:02:16;;;;;;;7.17;4.93;;;0.80;99.90;;;-0.70;100.00;100274.56;4863987;28;100621;-68
2020/12/27 00:04:43;;;;;;;6.17;4.23;;;0.90;99.90;;;-0.75;100.00;100271.34;4863123;28;100420;-67
2020/12/27 00:07:11;;;;;;;6.00;4.73;;;0.90;99.90;;;-0.83;100.00;100263.88;4864211;28;100079;-67
2020/12/27 00:09:40;;;;;;;7.83;4.53;;;0.80;99.90;;;-0.84;100.00;100256.09;4862729;28;100048;-67
2020/12/27 00:12:08;;;;;;;7.93;4.70;;;1.10;99.90;;;-0.90;100.00;100253.81;4862987;28;101205;-68
2020/12/27 00:14:35;;;;;;;7.10;5.53;;;0.90;99.90;;;-0.87;100.00;100248.41;4876889;28;102267;-67
2020/12/27 00:17:03;;;;;;;7.70;5.80;;;0.90;99.90;;;-0.87;100.00;100232.66;4864044;28;99990;-68
2020/12/27 00:19:30;;;;;;;8.27;4.90;;;0.80;99.90;;;-0.90;100.00;100225.78;4863170;28;100091;-68
2020/12/27 00:21:57;;;;;;;7.77;4.97;;;0.80;99.90;;;-0.88;100.00;100229.19;4863073;28;101039;-68
2020/12/27 00:24:23;;;;;;;5.40;4.70;;;1.60;99.90;;;-0.83;100.00;100226.25;4863189;28;100651;-69
2020/12/27 00:26:50;;;;;;;6.57;5.07;;;0.70;99.90;;;-0.81;100.00;100216.53;4862910;28;100215;-67
2020/12/27 00:29:18;;;;;;;7.87;5.30;;;0.80;99.90;;;-0.92;100.00;100211.88;4863441;28;100238;-67
2020/12/27 00:31:45;;;;;;;5.57;4.83;;;0.80;99.90;;;-0.94;100.00;100197.13;4863055;28;101130;-68
2020/12/27 00:34:12;;;;;;;8.07;6.53;;;1.40;99.90;;;-1.00;100.00;100193.09;4863275;28;101586;-67
2020/12/27 00:36:38;;;;;;;9.27;6.27;;;0.60;99.90;;;-1.04;100.00;100194.19;4863965;28;100033;-68
2020/12/27 00:39:06;;;;;;;8.73;5.63;;;0.70;99.90;;;-1.12;100.00;100185.91;4863506;28;100228;-67
2020/12/27 00:41:34;;;;;;;8.80;6.73;;;0.60;99.90;;;-1.17;100.00;100180.06;4863718;28;100716;-67
2020/12/27 00:44:01;;;;;;;7.60;5.33;;;0.70;99.90;;;-1.25;100.00;100172.63;4862502;28;101197;-67
2020/12/27 00:46:30;;;;;;;9.03;5.37;;;0.60;99.90;;;-1.34;100.00;100164.41;4862614;28;100146;-68
2020/12/27 00:48:57;;;;;;;8.53;5.60;;;0.50;99.90;;;-1.43;100.00;100160.53;4860398;28;100281;-68
2020/12/27 00:51:25;;;;;;;8.60;6.00;;;0.10;99.90;;;-1.42;100.00;100169.25;4860786;28;100543;-68
2020/12/27 00:53:53;;;;;;;8.50;5.73;;;0.40;99.90;;;-1.45;100.00;100165.88;4876405;28;103351;-67
2020/12/27 00:56:20;;;;;;;6.60;4.97;;;0.30;99.90;;;-1.38;100.00;100169.00;4876764;28;100300;-67
2020/12/27 00:59:04;;;;;;;9.00;6.00;;;0.30;99.90;;;-1.46;100.00;100164.16;4876707;28;99813;-68
2020/12/27 01:01:32;;;;;;;9.50;6.37;;;0.20;99.90;;;-1.40;100.00;100157.75;4860466;28;102749;-67
2020/12/27 01:04:07;;;;;;;8.83;5.83;;;0.30;99.90;;;-1.35;100.00;100142.56;4876587;28;101429;-68
2020/12/27 01:06:34;;;;;;;9.87;5.93;;;0.30;99.90;;;-1.32;100.00;100146.81;4877035;28;100163;-67
2020/12/27 01:09:05;;;;;;;6.93;5.87;;;0.20;99.90;;;-1.34;100.00;100140.78;4860877;28;100224;-66
2020/12/27 01:11:32;;;;;;;7.80;6.13;;;0.20;99.90;;;-1.33;100.00;100140.69;4862427;28;102012;-68
2020/12/27 01:13:59;;;;;;;9.23;6.30;;;0.20;99.90;;;-1.37;100.00;100125.25;4875843;28;102889;-68
2020/12/27 01:16:25;;;;;;;8.23;6.13;;;0.90;99.90;;;-1.35;100.00;100121.56;4876638;28;100343;-68
2020/12/27 01:18:53;;;;;;;7.03;4.87;;;0.10;99.90;;;-1.36;100.00;100101.50;4876486;28;100643;-67
2020/12/27 01:21:31;;;;;;;10.30;5.83;;;0.20;99.90;;;-1.37;100.00;100096.38;4876433;28;105171;-68
2020/12/27 01:24:04;;;;;;;7.23;5.80;;;0.20;99.90;;;-1.36;100.00;100093.63;4876671;28;102610;-67
2020/12/27 01:26:35;;;;;;;7.53;5.50;;;0.20;99.90;;;-1.34;100.00;100094.38;4860840;28;100370;-67
2020/12/27 01:29:06;;;;;;;8.70;5.80;;;0.20;99.90;;;-1.27;100.00;100085.25;4862482;28;99962;-67
2020/12/27 01:31:39;;;;;;;9.63;5.97;;;0.20;99.90;;;-1.26;100.00;100071.19;4876814;28;102481;-67
2020/12/27 01:34:15;;;;;;;7.07;5.30;;;0.20;99.90;;;-1.26;100.00;100080.84;4859655;28;101541;-68
2020/12/27 01:36:43;;;;;;;9.57;6.00;;;0.60;99.90;;;-1.22;100.00;100059.56;4876418;28;100177;-67
2020/12/27 01:39:17;;;;;;;8.57;5.70;;;0.20;99.90;;;-1.25;100.00;100051.03;4875657;28;100238;-68
2020/12/27 01:41:43;;;;;;;8.60;6.20;;;0.20;99.90;;;-1.26;100.00;100042.31;4862067;28;100603;-67
2020/12/27 01:44:19;;;;;;;8.57;5.40;;;0.40;99.90;;;-1.17;100.00;100040.91;4860403;28;100381;-67
2020/12/27 01:46:48;;;;;;;7.40;5.33;;;0.40;99.90;;;-1.14;100.00;100033.72;4876844;28;100306;-67
2020/12/27 01:49:26;;;;;;;6.13;5.17;;;0.30;99.90;;;-1.14;100.00;100025.00;4861974;28;100152;-68
2020/12/27 01:51:53;;;;;;;10.33;5.57;;;0.20;99.90;;;-1.09;100.00;100028.19;4875893;28;101703;-68
2020/12/27 01:54:38;;;;;;;7.87;5.20;;;0.20;99.90;;;-1.20;100.00;100025.34;4859929;28;100564;-68
2020/12/27 01:57:13;;;;;;;6.47;4.80;;;0.40;99.90;;;-1.19;100.00;100032.28;4860448;28;100271;-68
2020/12/27 01:59:48;;;;;;;7.37;5.10;;;0.30;99.90;;;-1.14;100.00;100019.75;4859468;28;100238;-67
2020/12/27 02:02:34;;;;;;;7.10;5.83;;;0.40;99.90;;;-1.16;100.00;100014.59;4862139;28;100494;-66
2020/12/27 02:05:07;;;;;;;6.90;4.83;;;0.30;99.90;;;-1.19;100.00;100014.75;4875005;28;102283;-67
2020/12/27 02:07:33;;;;;;;7.53;5.43;;;1.50;99.90;;;-1.25;100.00;100004.63;4859864;28;100287;-68
2020/12/27 02:10:23;;;;;;;7.53;4.70;;;-0.20;99.90;;;-1.27;100.00;99985.50;4861506;28;100379;-67
2020/12/27 02:12:50;;;;;;;8.37;5.47;;;0.30;99.90;;;-1.18;100.00;99978.84;4862834;28;100576;-67
2020/12/27 02:15:19;;;;;;;6.63;5.00;;;1.30;99.90;;;-1.26;100.00;99970.59;4862340;28;102557;-67
2020/12/27 02:18:24;;;;;;;11.20;5.30;;;0.30;99.90;;;-1.23;100.00;99963.34;4913382;27;100140;-67
2020/12/27 02:20:52;;;;;;;6.40;5.23;;;0.40;99.90;;;-1.25;100.00;99960.00;4878880;28;100258;-66
2020/12/27 02:23:22;;;;;;;7.97;4.87;;;0.30;99.90;;;-1.24;100.00;99963.47;4862791;28;103586;-67
2020/12/27 02:25:55;;;;;;;7.20;5.10;;;0.30;99.90;;;-1.26;100.00;99960.94;4862743;28;102953;-67
2020/12/27 02:28:28;;;;;;;6.63;5.17;;;0.30;99.90;;;-1.28;100.00;99948.84;4878341;28;100605;-67
2020/12/27 02:30:58;;;;;;;5.70;4.90;;;1.30;99.90;;;-1.21;100.00;99937.03;4862235;28;100195;-68
2020/12/27 02:33:24;;;;;;;7.63;5.43;;;0.30;99.90;;;-1.19;100.00;99936.00;4862454;28;103162;-67
2020/12/27 02:35:52;;;;;;;5.93;4.60;;;0.30;99.90;;;-1.26;100.00;99926.81;4878439;28;102647;-68
2020/12/27 02:38:22;;;;;;;6.57;5.30;;;0.30;99.90;;;-1.24;100.00;99929.34;4862617;28;100380;-67
2020/12/27 02:40:49;;;;;;;7.87;5.63;;;0.30;99.90;;;-1.21;100.00;99916.88;4864538;28;100044;-67
2020/12/27 02:43:39;;;;;;;4.83;4.27;;;-0.80;99.90;;;-1.25;100.00;99896.16;4863551;28;100389;-67
2020/12/27 02:46:19;;;;;;;8.57;5.93;;;0.40;99.90;;;-1.36;100.00;99901.22;4862266;28;101312;-67
2020/12/27 02:49:05;;;;;;;7.37;5.03;;;0.40;99.90;;;-1.36;100.00;99899.41;4863578;28;100045;-67
2020/12/27 02:51:31;;;;;;;6.87;5.93;;;0.20;99.90;;;-1.33;100.00;99901.84;4878187;28;100079;-67
2020/12/27 02:53:58;;;;;;;9.87;5.67;;;0.30;99.90;;;-1.27;100.00;99892.78;4863934;28;100795;-67
2020/12/27 02:56:28;;;;;;;6.00;5.10;;;0.20;99.90;;;-1.34;100.00;99900.16;4860897;28;101925;-67
2020/12/27 02:58:59;;;;;;;9.77;5.43;;;0.30;99.90;;;-1.33;100.00;99898.38;4876898;28;100166;-67
2020/12/27 03:01:26;;;;;;;8.73;5.60;;;0.10;99.90;;;-1.27;100.00;99882.28;4877661;28;100378;-67
2020/12/27 03:04:12;;;;;;;7.97;5.43;;;0.20;99.90;;;-1.30;100.00;99883.31;4877814;28;102649;-67
2020/12/27 03:06:41;;;;;;;7.37;5.23;;;0.00;99.90;;;-1.34;100.00;99875.69;4878070;28;102135;-68
2020/12/27 03:09:28;;;;;;;8.27;4.80;;;0.30;99.90;;;-1.29;100.00;99869.25;4864255;28;99933;-66
2020/12/27 03:12:09;;;;;;;6.67;5.60;;;0.20;99.90;;;-1.30;100.00;99864.94;4878556;28;100020;-67
2020/12/27 03:14:36;;;;;;;7.90;5.50;;;0.80;99.90;;;-1.20;100.00;99859.97;4880959;28;102936;-68
2020/12/27 03:17:23;;;;;;;8.03;5.93;;;0.30;99.90;;;-1.21;100.00;99853.84;4916912;28;100959;-67
2020/12/27 03:20:16;;;;;;;9.53;5.67;;;0.20;99.90;;;-1.24;100.00;99848.81;4864887;28;100120;-67
2020/12/27 03:22:55;;;;;;;7.27;5.53;;;0.20;99.90;;;-1.27;100.00;99851.63;4877719;28;100275;-67
2020/12/27 03:25:33;;;;;;;7.37;5.33;;;0.30;99.90;;;-1.25;100.00;99841.88;4864214;28;101060;-68
2020/12/27 03:28:00;;;;;;;7.27;5.57;;;0.30;99.90;;;-1.22;100.00;99838.19;4878384;28;101690;-67
2020/12/27 03:30:28;;;;;;;8.57;5.77;;;0.30;99.90;;;-1.32;100.00;99830.06;4877659;28;101912;-66
2020/12/27 03:33:00;;;;;;;12.00;6.20;;;0.30;99.90;;;-1.32;100.00;99823.97;4877865;28;100166;-67
2020/12/27 03:35:29;;;;;;;7.33;6.27;;;0.20;99.90;;;-1.35;100.00;99817.13;4877484;28;100855;-65
2020/12/27 03:37:57;;;;;;;9.47;6.37;;;0.20;99.90;;;-1.37;100.00;99810.28;4877568;28;102560;-67
2020/12/27 03:40:53;;;;;;;7.53;5.80;;;0.30;99.90;;;-1.32;100.00;99797.72;4877694;28;100459;-67
2020/12/27 03:43:39;;;;;;;10.27;6.97;;;0.10;99.90;;;-1.36;100.00;99804.94;4863742;28;100162;-65
2020/12/27 03:46:08;;;;;;;8.03;6.33;;;0.30;99.90;;;-1.33;100.00;99794.25;4877285;28;101913;-66
2020/12/27 03:49:11;;;;;;;8.40;6.57;;;0.40;99.90;;;-1.33;100.00;99791.63;4877551;28;102782;-67
2020/12/27 03:51:50;;;;;;;9.50;6.13;;;0.20;99.90;;;-1.24;100.00;99782.34;4863713;28;100285;-67
2020/12/27 03:54:25;;;;;;;9.70;5.93;;;0.30;99.90;;;-1.21;100.00;99782.13;4877899;28;100261;-67
2020/12/27 03:57:10;;;;;;;10.07;6.77;;;0.20;99.90;;;-1.30;100.00;99773.06;4860959;28;100642;-67
2020/12/27 03:59:47;;;;;;;10.90;6.50;;;0.10;99.90;;;-1.34;100.00;99750.56;4863463;28;100675;-67
2020/12/27 04:02:35;;;;;;;9.10;5.80;;;0.40;99.90;;;-1.33;100.00;99756.66;4863995;28;100143;-68
2020/12/27 04:05:02;;;;;;;10.73;6.70;;;0.10;99.90;;;-1.36;100.00;99754.25;4877667;28;100479;-67
2020/12/27 04:07:31;;;;;;;8.57;6.00;;;0.30;99.90;;;-1.37;100.00;99749.94;4862556;28;103106;-67
2020/12/27 04:09:59;;;;;;;9.47;6.20;;;0.30;99.90;;;-1.40;100.00;99745.72;4861228;28;102133;-67
2020/12/27 04:12:26;;;;;;;9.03;5.77;;;1.50;99.90;;;-1.39;100.00;99738.69;4862363;28;100171;-66
2020/12/27 04:14:53;;;;;;;9.20;5.90;;;0.30;99.90;;;-1.36;100.00;99738.50;4876745;28;100387;-66
2020/12/27 04:17:34;;;;;;;7.93;5.43;;;0.30;99.90;;;-1.43;100.00;99732.78;4876686;28;101795;-67
2020/12/27 04:20:01;;;;;;;7.00;5.50;;;0.10;99.90;;;-1.45;100.00;99732.03;4876955;28;102509;-67
2020/12/27 04:22:27;;;;;;;9.00;5.67;;;0.30;99.90;;;-1.47;100.00;99716.38;4877853;28;100460;-68
2020/12/27 04:25:02;;;;;;;9.37;5.27;;;0.20;99.90;;;-1.50;100.00;99716.59;4861161;28;100050;-68
2020/12/27 04:27:29;;;;;;;5.93;4.53;;;0.80;99.90;;;-1.51;100.00;99717.53;4877143;28;103236;-68
2020/12/27 04:29:55;;;;;;;8.10;5.40;;;0.10;99.90;;;-1.46;100.00;99714.59;4860951;28;102564;-68
2020/12/27 04:32:38;;;;;;;6.67;4.80;;;0.10;99.90;;;-1.42;100.00;99715.25;4877969;28;100188;-67
2020/12/27 04:35:18;;;;;;;6.13;4.30;;;0.10;99.90;;;-1.38;100.00;99707.09;4876266;28;100208;-67
2020/12/27 04:37:47;;;;;;;10.67;5.60;;;0.20;99.90;;;-1.47;100.00;99710.28;4860644;28;102820;-67
2020/12/27 04:40:22;;;;;;;9.07;5.67;;;0.00;99.90;;;-1.54;100.00;99711.63;4863491;28;101378;-66
2020/12/27 04:42:52;;;;;;;6.50;4.67;;;0.10;99.90;;;-1.60;100.00;99712.84;4877195;28;100433;-67
2020/12/27 04:45:35;;;;;;;8.13;5.43;;;0.00;99.90;;;-1.67;100.00;99711.53;4876793;28;100470;-67
2020/12/27 04:48:11;;;;;;;8.07;4.87;;;0.10;99.90;;;-1.64;100.00;99713.13;4860802;28;102795;-67
2020/12/27 04:51:14;;;;;;;8.97;5.10;;;0.10;99.90;;;-1.64;100.00;99726.25;4881036;28;100544;-66
2020/12/27 04:53:49;;;;;;;6.50;4.67;;;0.00;99.90;;;-1.60;100.00;99719.84;4876922;28;100194;-67
2020/12/27 04:56:25;;;;;;;7.83;5.03;;;0.00;99.90;;;-1.62;100.00;99713.88;4876446;28;100211;-68
2020/12/27 04:59:04;;;;;;;8.40;4.40;;;0.00;99.90;;;-1.71;100.00;99715.28;4877133;28;102811;-67
2020/12/27 05:01:32;;;;;;;8.40;5.37;;;-0.20;99.90;;;-1.64;100.00;99708.72;4860214;28;102204;-68
2020/12/27 05:04:07;;;;;;;5.33;3.87;;;0.00;99.90;;;-1.72;100.00;99703.09;4877011;28;100202;-68
2020/12/27 05:06:44;;;;;;;7.67;4.40;;;0.10;99.90;;;-1.65;100.00;99695.72;4875941;28;100153;-66
2020/12/27 05:09:12;;;;;;;5.83;4.10;;;-0.10;99.90;;;-1.69;100.00;99689.81;4876767;28;102612;-66
2020/12/27 05:11:39;;;;;;;4.67;4.17;;;0.00;99.90;;;-1.70;100.00;99687.28;4876410;28;102494;-68
2020/12/27 05:14:15;;;;;;;7.00;4.27;;;-0.10;99.90;;;-1.69;100.00;99678.47;4860834;28;100128;-67
2020/12/27 05:16:53;;;;;;;6.43;4.20;;;0.30;99.90;;;-1.74;100.00;99670.06;4862454;28;100368;-69
2020/12/27 05:19:22;;;;;;;6.30;3.87;;;-0.10;99.90;;;-1.70;100.00;99656.66;4876820;28;100265;-67
2020/12/27 05:21:55;;;;;;;5.47;4.20;;;-0.20;99.90;;;-1.78;100.00;99658.91;4875817;28;102915;-67
2020/12/27 05:24:46;;;;;;;6.00;4.33;;;-0.20;99.90;;;-1.74;100.00;99646.47;4877090;28;100253;-68
2020/12/27 05:27:27;;;;;;;7.70;4.53;;;-0.10;99.90;;;-1.80;100.00;99634.56;4876568;28;100450;-67
2020/12/27 05:30:26;;;;;;;6.07;3.90;;;-0.20;99.90;;;-1.70;100.00;99630.41;4876427;28;100399;-68
2020/12/27 05:33:23;;;;;;;6.17;4.10;;;-0.10;99.90;;;-1.65;100.00;99614.41;4861445;28;100310;-67
2020/12/27 05:36:12;;;;;;;5.47;3.53;;;-0.10;99.90;;;-1.59;100.00;99612.22;4857410;28;100172;-67
2020/12/27 05:38:45;;;;;;;6.20;3.70;;;-0.20;99.90;;;-1.56;100.00;99598.06;4860329;28;100365;-67
2020/12/27 05:41:32;;;;;;;5.03;3.40;;;-0.20;99.90;;;-1.50;100.00;99606.41;4861244;28;100393;-67
2020/12/27 05:44:11;;;;;;;5.17;3.73;;;-0.10;99.90;;;-1.43;100.00;99588.47;4876911;28;102035;-67
2020/12/27 05:46:37;;;;;;;6.27;4.00;;;0.00;99.90;;;-1.39;100.00;99591.72;4876696;28;99932;-67
2020/12/27 05:49:04;;;;;;;4.73;3.10;;;0.00;99.90;;;-1.40;100.00;99593.50;4878810;28;100347;-67
2020/12/27 05:51:49;;;;;;;5.17;3.53;;;1.00;99.90;;;-1.48;100.00;99586.13;4879088;28;102502;-67
2020/12/27 05:54:29;;;;;;;5.33;3.70;;;0.20;99.90;;;-1.34;100.00;99576.50;4878991;28;102329;-67
2020/12/27 05:56:59;;;;;;;7.30;4.30;;;0.20;99.90;;;-1.30;100.00;99562.25;4879627;28;100166;-67
2020/12/27 05:59:31;;;;;;;4.60;3.40;;;1.10;99.90;;;-1.35;100.00;99565.16;4877057;28;100304;-67
2020/12/27 06:02:02;;;;;;;6.83;3.80;;;0.30;99.90;;;-1.36;100.00;99562.69;4878614;28;100380;-68
2020/12/27 06:05:13;;;;;;;7.13;4.50;;;0.40;99.90;;;-1.41;100.00;99555.09;4878733;28;103487;-67
2020/12/27 06:07:46;;;;;;;6.00;3.63;;;0.30;99.90;;;-1.38;100.00;99547.03;4879187;28;100235;-67
2020/12/27 06:10:20;;;;;;;5.77;4.23;;;0.40;99.90;;;-1.37;100.00;99532.13;4862500;28;100508;-67
2020/12/27 06:13:55;;;;;;;5.50;3.87;;;0.30;99.90;;;-1.39;100.00;99523.50;4862727;28;100297;-67
2020/12/27 06:16:57;;;;;;;5.23;3.93;;;0.40;99.90;;;-1.43;100.00;99529.88;4863175;28;102202;-65
2020/12/27 06:19:58;;;;;;;6.70;4.20;;;0.30;99.90;;;-1.41;100.00;99515.72;4865148;28;100177;-67
2020/12/27 06:22:29;;;;;;;6.97;3.57;;;0.50;99.90;;;-1.41;100.00;99518.34;4862715;28;100504;-68
2020/12/27 06:25:18;;;;;;;4.10;3.23;;;0.40;99.90;;;-1.36;100.00;99531.19;4878280;28;102459;-68
2020/12/27 06:27:45;;;;;;;6.13;3.73;;;0.60;99.90;;;-1.47;100.00;99532.72;4864453;28;100535;-68
2020/12/27 06:30:19;;;;;;;5.23;3.80;;;0.20;99.90;;;-1.43;100.00;99530.72;4878625;28;100537;-67
2020/12/27 06:33:07;;;;;;;6.50;3.63;;;0.40;99.90;;;-1.42;100.00;99523.69;4878832;28;100571;-66
2020/12/27 06:35:36;;;;;;;6.70;3.80;;;0.20;99.90;;;-1.45;100.00;99525.59;4878482;28;102784;-67
2020/12/27 06:38:16;;;;;;;4.77;3.20;;;0.30;99.90;;;-1.41;100.00;99525.38;4878725;28;100035;-65
2020/12/27 06:40:55;;;;;;;6.30;3.73;;;0.60;99.90;;;-1.34;100.00;99524.03;4864450;28;100514;-65
2020/12/27 06:43:43;;;;;;;5.07;3.40;;;0.20;99.90;;;-1.39;100.00;99524.34;4878332;28;100270;-67
2020/12/27 06:46:26;;;;;;;5.97;4.03;;;0.20;99.90;;;-1.41;100.00;99531.47;4862726;28;102869;-66
2020/12/27 06:49:09;;;;;;;6.37;3.20;;;0.20;99.90;;;-1.38;100.00;99533.91;4878436;28;100941;-66
2020/12/27 06:51:54;;;;;;;5.97;4.13;;;0.30;99.90;;;-1.34;100.00;99534.53;4864861;28;100109;-67
2020/12/27 06:54:43;;;;;;;4.93;3.57;;;0.20;99.90;;;-1.37;100.00;99524.25;4878355;28;100213;-68
2020/12/27 06:57:46;;;;;;;5.27;3.57;;;0.20;99.90;;;-1.23;100.00;99522.38;4878218;28;102937;-66
2020/12/27 07:00:24;;;;;;;4.83;3.37;;;0.40;98.80;;;-1.25;100.00;99534.78;4877583;28;102539;-67
2020/12/27 07:03:08;;;;;;;5.30;3.30;;;0.30;98.20;;;-1.38;100.00;99512.91;4862774;28;100019;-66
2020/12/27 07:05:37;;;;;;;5.00;3.33;;;0.30;99.50;;;-1.36;100.00;99508.38;4861898;28;100343;-67
2020/12/27 07:08:05;;;;;;;5.07;2.83;;;0.30;99.10;;;-1.33;100.00;99515.22;4878568;28;101930;-65
2020/12/27 07:10:34;;;;;;;4.73;3.50;;;0.30;99.10;;;-1.28;100.00;99494.75;4864014;28;100454;-66
2020/12/27 07:13:07;;;;;;;5.50;3.47;;;0.30;98.70;;;-1.26;100.00;99491.09;4864431;28;100100;-68
2020/12/27 07:15:35;;;;;;;5.63;3.40;;;0.40;98.70;;;-1.36;100.00;99484.75;4863554;28;100079;-66
2020/12/27 07:18:08;;;;;;;7.53;3.57;;;0.20;98.80;;;-1.23;100.00;99474.28;4863230;28;100471;-66
2020/12/27 07:20:39;;;;;;;5.57;4.27;;;0.40;98.40;;;-1.25;100.00;99473.56;4860949;28;101977;-66
2020/12/27 07:23:19;;;;;;;4.47;3.40;;;0.30;98.40;;;-1.22;100.00;99471.56;4862445;28;100014;-66
2020/12/27 07:25:48;;;;;;;3.90;3.50;;;0.40;98.00;;;-1.04;100.00;99455.50;4864030;28;100267;-67
2020/12/27 07:28:16;;;;;;;4.67;3.13;;;0.20;97.00;;;-1.14;100.00;99453.50;4863918;28;100680;-66
2020/12/27 07:30:44;;;;;;;4.30;2.90;;;0.50;97.50;;;-1.12;100.00;99451.63;4864144;28;100221;-64
2020/12/27 07:33:15;;;;;;;3.40;2.30;;;0.50;97.00;;;-1.02;100.00;99451.00;4844942;28;99576;-67
2020/12/27 07:35:52;;;;;;;;;;;;;;;;;;;;;
2020/12/27 07:38:23;;;;;;;3.83;3.00;;;0.50;96.30;;;-1.08;100.00;99431.25;4864752;28;101229;-67
2020/12/27 07:40:54;;;;;;;2.97;2.67;;;0.50;96.70;;;-0.98;100.00;99431.44;4862911;28;100956;-67
2020/12/27 07:43:29;;;;;;;3.40;2.53;;;0.50;95.80;;;-0.92;100.00;99423.16;4877757;28;99905;-67
2020/12/27 07:45:56;;;;;;;4.83;3.13;;;0.80;95.10;;;-0.94;100.00;99411.91;4863010;28;100083;-67
2020/12/27 07:48:47;;;;;;;7.67;2.67;;;0.70;95.10;;;-0.94;100.00;99404.03;4864217;28;100891;-66
2020/12/27 07:51:15;;;;;;;3.73;2.80;;;0.70;93.90;;;-0.92;100.00;99397.72;4860464;28;100144;-66
2020/12/27 07:53:46;;;;;;;4.10;2.70;;;0.70;94.50;;;-0.89;100.00;99388.81;4864185;28;100194;-67
2020/12/27 07:56:21;;;;;;;3.43;2.80;;;0.80;94.10;;;-0.93;100.00;99380.28;4864074;28;100126;-67
2020/12/27 07:58:53;;;;;;;4.93;3.53;;;0.70;94.10;;;-0.87;100.00;99377.25;4864124;28;101096;-65
2020/12/27 08:01:28;;;;;;;4.17;2.80;;;0.90;94.10;;;-0.82;100.00;99367.25;4863603;28;100526;-66
2020/12/27 08:03:57;;;;;;;4.30;2.70;;;0.80;93.40;;;-0.85;100.00;99364.81;4862831;28;100242;-66
2020/12/27 08:06:26;;;;;;;3.77;2.67;;;0.80;93.50;;;-0.77;100.00;99348.53;4862019;28;100075;-67
2020/12/27 08:09:04;;;;;;;3.97;2.60;;;0.80;93.60;;;-0.69;100.00;99350.59;4875288;28;100338;-66
2020/12/27 08:11:32;;;;;;;4.90;3.73;;;0.90;93.00;;;-0.69;100.00;99345.34;4860218;28;100529;-67
2020/12/27 08:14:02;;;;;;;4.00;3.00;;;0.90;92.60;;;-0.63;100.00;99323.91;4862025;28;99962;-66
2020/12/27 08:16:29;;;;;;;4.20;2.93;;;0.90;92.40;;;-0.60;100.00;99337.63;4861490;28;100394;-66
2020/12/27 08:19:06;;;;;;;5.93;2.43;;;1.00;92.10;;;-0.46;100.00;99313.81;4859021;28;103381;-67
2020/12/27 08:21:34;;;;;;;4.60;2.73;;;1.90;91.30;;;-0.48;100.00;99307.00;4860727;28;100569;-66
2020/12/27 08:24:04;;;;;;;3.37;2.27;;;1.10;91.10;;;-0.44;100.00;99309.31;4861628;28;100117;-66
2020/12/27 08:26:32;;;;;;;4.43;2.43;;;1.10;90.70;;;-0.42;100.00;99310.03;4860266;28;100195;-65
2020/12/27 08:29:10;;;;;;;3.77;2.70;;;1.20;90.60;;;-0.33;100.00;99292.75;4861492;28;100614;-66
2020/12/27 08:31:37;;;;;;;3.97;2.70;;;1.20;90.00;;;-0.34;100.00;99283.16;4861168;28;100511;-66
2020/12/27 08:34:06;;;;;;;4.90;2.60;;;1.40;90.20;;;-0.21;100.00;99273.41;4861541;28;99777;-65
2020/12/27 08:36:34;;;;;;;4.23;2.63;;;1.40;88.40;;;-0.19;100.00;99279.41;4860843;28;100050;-67
2020/12/27 08:39:10;;;;;;;2.53;2.23;;;1.40;87.90;;;-0.19;100.00;99276.78;4861084;28;101244;-66
2020/12/27 08:41:41;;;;;;;4.33;3.40;;;1.40;88.60;;;-0.11;100.00;99271.78;4860766;28;100544;-65
2020/12/27 08:44:24;;;;;;;3.80;3.23;;;1.50;87.00;;;-0.04;100.00;99274.78;4861656;28;100011;-65
2020/12/27 08:46:55;;;;;;;3.17;2.87;;;1.60;85.70;;;-0.04;100.00;99274.78;4874697;28;100065;-65
2020/12/27 08:49:44;;;;;;;3.33;2.23;;;1.80;84.10;;;-0.04;100.00;99267.75;4861064;28;101539;-66
2020/12/27 08:52:19;;;;;;;3.80;2.50;;;1.70;84.70;;;-0.03;100.00;99245.75;4861054;28;100452;-65
2020/12/27 08:54:52;;;;;;;4.00;2.30;;;2.90;84.30;;;-0.05;100.00;99249.44;4861023;28;100128;-66
2020/12/27 08:57:18;;;;;;;5.13;2.00;;;1.80;84.20;;;-0.03;100.00;99253.66;4860770;28;100239;-65
2020/12/27 08:59:59;;;;;;;3.13;2.13;;;2.70;83.30;;;0.04;100.00;99242.63;4860055;28;102732;-64
2020/12/27 09:02:26;;;;;;;4.83;2.80;;;1.80;81.60;;;0.02;100.00;99239.28;4860462;28;100343;-64
2020/12/27 09:05:06;;;;;;;2.37;1.97;;;2.50;82.10;;;0.05;100.00;99232.00;4880306;28;100508;-66
2020/12/27 09:07:40;;;;;;;3.53;2.53;;;3.10;82.50;;;0.13;100.00;99234.88;4860661;28;99877;-67
2020/12/27 09:10:12;;;;;;;2.23;1.83;;;1.90;80.30;;;0.21;100.00;99248.28;4860536;28;100737;-66
2020/12/27 09:12:56;;;;;;;3.03;2.10;;;2.00;79.00;;;0.27;100.00;99229.38;4859853;28;100894;-66
2020/12/27 09:15:29;;;;;;;3.27;1.90;;;2.00;77.80;;;0.34;100.00;99235.03;4860311;28;100079;-64
2020/12/27 09:17:59;;;;;;;3.60;2.07;;;2.20;77.30;;;0.37;100.00;99231.34;4860308;28;100111;-65
2020/12/27 09:20:28;;;;;;;2.63;2.10;;;2.90;77.90;;;0.40;100.00;99224.00;4860235;28;101312;-66
2020/12/27 09:22:55;;;;;;;3.17;2.03;;;3.30;76.70;;;0.44;100.00;99233.34;4860165;28;100262;-66
2020/12/27 09:25:24;;;;;;;3.97;2.40;;;2.40;75.40;;;0.46;100.00;99230.59;4860300;28;100281;-64
2020/12/27 09:27:53;;;;;;;2.77;1.90;;;2.50;76.00;;;0.47;100.00;99222.59;4860104;28;100141;-66
2020/12/27 09:30:22;;;;;;;2.47;2.07;;;2.30;74.00;;;0.45;100.00;99216.59;4860012;28;101185;-66
2020/12/27 09:32:49;;;;;;;2.53;1.93;;;2.40;73.90;;;0.46;100.00;99218.28;4860324;28;101660;-65
2020/12/27 09:35:22;;;;;;;3.40;2.17;;;2.60;72.70;;;0.45;100.00;99208.72;4860603;28;99990;-64
2020/12/27 09:37:51;;;;;;;2.13;1.60;;;2.40;73.20;;;0.46;100.00;99184.06;4860813;28;100045;-66
2020/12/27 09:40:19;;;;;;;3.70;1.93;;;2.50;72.30;;;0.47;100.00;99196.28;4859536;28;101995;-66
2020/12/27 09:42:46;;;;;;;3.50;2.50;;;2.50;72.20;;;0.47;100.00;99198.06;4860364;28;100580;-68
2020/12/27 09:45:19;;;;;;;3.80;3.23;;;3.30;72.20;;;0.47;100.00;99208.59;4861148;28;100284;-65
2020/12/27 09:47:56;;;;;;;3.37;2.00;;;2.50;71.40;;;0.44;100.00;99170.19;4860818;28;100511;-66
2020/12/27 09:50:31;;;;;;;2.97;1.67;;;2.50;72.10;;;0.42;100.00;99190.53;4859869;28;101497;-67
2020/12/27 09:52:59;;;;;;;2.77;1.73;;;2.40;72.30;;;0.41;100.00;99198.53;4873301;28;101085;-67
2020/12/27 09:55:26;;;;;;;3.93;2.50;;;2.50;72.70;;;0.35;100.00;99178.81;4859786;28;100185;-67
2020/12/27 09:57:53;;;;;;;1.80;1.70;;;2.50;71.60;;;0.37;100.00;99182.16;4874339;28;100475;-67
2020/12/27 10:00:20;;;;;;;2.47;2.00;;;2.40;71.80;;;0.35;100.00;99174.41;4859888;28;101374;-65
2020/12/27 10:02:46;;;;;;;3.47;2.20;;;2.50;72.30;;;0.31;100.00;99156.31;4859742;28;101103;-66
2020/12/27 10:05:14;;;;;;;3.27;2.17;;;2.60;72.30;;;0.33;100.00;99146.53;4859849;28;100438;-67
2020/12/27 10:07:42;;;;;;;3.97;2.30;;;3.00;72.90;;;0.29;100.00;99131.94;4859645;28;99882;-66
2020/12/27 10:10:12;;;;;;;3.30;1.90;;;3.80;72.40;;;0.31;100.00;99122.97;4896310;28;100580;-66
2020/12/27 10:12:40;;;;;;;2.27;1.87;;;2.50;71.50;;;0.31;100.00;99112.44;4905539;28;101176;-68
2020/12/27 10:15:09;;;;;;;2.50;2.00;;;2.40;71.80;;;0.30;100.00;99109.94;4859367;28;99997;-66
2020/12/27 10:17:36;;;;;;;3.37;2.00;;;2.60;71.00;;;0.31;100.00;99107.19;4872248;28;100184;-66
2020/12/27 10:20:04;;;;;;;2.50;2.00;;;2.50;70.80;;;0.32;100.00;99095.69;4861547;28;100686;-67
2020/12/27 10:22:32;;;;;;;3.03;2.17;;;2.60;69.90;;;0.39;100.00;99095.19;4902431;28;100353;-66
2020/12/27 10:24:58;;;;;;;2.80;2.00;;;2.70;69.80;;;0.45;100.00;99102.59;4888940;28;99977;-67
2020/12/27 10:27:25;;;;;;;3.03;1.80;;;2.60;70.10;;;0.44;100.00;99101.78;4859755;28;99909;-66
2020/12/27 10:29:52;;;;;;;2.17;1.70;;;3.80;69.80;;;0.44;100.00;99090.41;4893894;28;101466;-65
2020/12/27 10:32:18;;;;;;;2.77;1.80;;;2.90;68.90;;;0.43;100.00;99086.09;4867322;28;100216;-66
2020/12/27 10:34:45;;;;;;;5.30;2.50;;;3.00;68.50;;;0.42;100.00;99058.94;4875328;28;100174;-66
2020/12/27 10:37:11;;;;;;;2.10;1.63;;;3.50;68.50;;;0.49;100.00;99072.47;4862685;28;100269;-65
2020/12/27 10:39:39;;;;;;;2.20;1.77;;;3.70;67.60;;;0.48;100.00;99062.88;4862148;28;100782;-66
2020/12/27 10:42:05;;;;;;;2.87;2.13;;;3.00;67.40;;;0.48;100.00;99049.72;4861225;28;101101;-66